createdAt,value
2023-04-16T00:08:12.901Z,100.00
2023-04-16T00:18:17.040Z,100.00
2023-04-16T00:28:21.293Z,100.00
2023-04-16T00:38:30.029Z,100.00
2023-04-16T00:48:34.659Z,100.00
2023-04-16T00:58:38.796Z,100.00
2023-04-16T01:08:43.317Z,100.00
2023-04-16T01:18:47.433Z,100.00
2023-04-16T01:28:51.696Z,100.00
2023-04-16T01:38:55.989Z,100.00
2023-04-16T01:49:00.798Z,100.00
2023-04-16T01:59:05.119Z,100.00
2023-04-16T02:09:10.167Z,100.00
2023-04-16T02:19:14.572Z,100.00
2023-04-16T02:29:19.599Z,100.00
2023-04-16T02:39:23.948Z,100.00
2023-04-16T02:49:28.152Z,100.00
2023-04-16T02:59:32.636Z,100.00
2023-04-16T03:09:37.178Z,100.00
2023-04-16T03:19:41.457Z,100.00
2023-04-16T03:29:45.756Z,100.00
2023-04-16T03:39:49.970Z,100.00
2023-04-16T03:49:54.023Z,100.00
2023-04-16T03:59:58.705Z,100.00
2023-04-16T04:10:03.077Z,100.00
2023-04-16T04:20:08.360Z,100.00
2023-04-16T04:30:13.468Z,100.00
2023-04-16T04:40:17.766Z,100.00
2023-04-16T04:50:22.326Z,100.00
2023-04-16T05:00:26.430Z,100.00
2023-04-16T05:10:30.775Z,100.00
2023-04-16T05:20:34.828Z,100.00
2023-04-16T05:30:39.338Z,100.00
2023-04-16T05:40:43.629Z,100.00
2023-04-16T05:50:47.947Z,100.00
2023-04-16T06:00:52.305Z,100.00
2023-04-16T06:10:56.741Z,100.00
2023-04-16T06:21:01.528Z,100.00
2023-04-16T06:31:05.796Z,100.00
2023-04-16T06:41:10.250Z,100.00
2023-04-16T06:51:14.413Z,100.00
2023-04-16T07:01:18.871Z,100.00
2023-04-16T07:11:23.513Z,99.97
2023-04-16T07:21:27.880Z,99.50
2023-04-16T07:31:32.257Z,98.92
2023-04-16T07:41:36.671Z,98.25
2023-04-16T07:51:40.894Z,98.16
2023-04-16T08:01:45.065Z,96.68
2023-04-16T08:11:50.367Z,97.02
2023-04-16T08:21:54.941Z,96.44
2023-04-16T08:31:59.869Z,97.05
2023-04-16T08:42:06.216Z,96.37
2023-04-16T08:52:15.816Z,95.61
2023-04-16T09:02:20.374Z,93.27
2023-04-16T09:12:26.385Z,91.07
2023-04-16T09:22:30.543Z,89.38
2023-04-16T09:32:34.804Z,88.99
2023-04-16T09:42:39.354Z,88.09
2023-04-16T09:52:44.473Z,86.16
2023-04-16T10:02:50.586Z,83.49
2023-04-16T10:12:56.038Z,81.62
2023-04-16T10:23:01.037Z,80.02
2023-04-16T10:33:06.230Z,80.16
2023-04-16T10:43:10.424Z,80.50
2023-04-16T10:53:23.808Z,80.66
2023-04-16T11:03:31.203Z,81.53
2023-04-16T11:13:37.329Z,81.32
2023-04-16T11:23:51.806Z,81.13
2023-04-16T11:33:56.736Z,80.40
2023-04-16T11:44:01.465Z,79.42
2023-04-16T11:54:06.017Z,78.96
2023-04-16T12:04:10.654Z,78.40
2023-04-16T12:14:15.647Z,77.88
2023-04-16T12:24:24.006Z,77.57
2023-04-16T12:34:48.581Z,76.22
2023-04-16T12:44:52.376Z,74.60
2023-04-16T12:54:56.515Z,74.27
2023-04-16T13:05:00.820Z,73.95
2023-04-16T13:15:06.004Z,73.01
2023-04-16T13:25:11.231Z,72.40
2023-04-16T13:35:15.551Z,72.37
2023-04-16T13:45:21.107Z,71.06
2023-04-16T13:55:25.292Z,69.45
2023-04-16T14:05:29.487Z,68.31
2023-04-16T14:15:33.689Z,67.68
2023-04-16T14:25:38.638Z,67.26
2023-04-16T14:35:42.901Z,69.47
2023-04-16T14:45:47.336Z,70.93
2023-04-16T14:55:51.621Z,72.47
2023-04-16T15:05:56.272Z,73.83
2023-04-16T15:16:00.787Z,74.60
2023-04-16T15:26:05.468Z,75.28
2023-04-16T15:36:09.626Z,75.87
2023-04-16T15:46:15.102Z,75.86
2023-04-16T15:56:19.579Z,76.31
2023-04-16T16:06:23.924Z,76.32
2023-04-16T16:16:28.392Z,76.24
2023-04-16T16:26:32.734Z,76.51
2023-04-16T16:36:38.139Z,76.96
2023-04-16T16:46:42.402Z,77.40
2023-04-16T16:56:46.735Z,77.49
2023-04-16T17:06:50.971Z,78.15
2023-04-16T17:16:55.274Z,78.72
2023-04-16T17:26:59.686Z,78.86
2023-04-16T17:37:04.019Z,79.30
2023-04-16T17:47:08.235Z,80.06
2023-04-16T17:57:12.686Z,80.80
2023-04-16T18:07:17.020Z,81.68
2023-04-16T18:17:22.847Z,82.57
2023-04-16T18:27:27.521Z,83.38
2023-04-16T18:37:34.178Z,84.43
2023-04-16T18:47:41.290Z,85.25
2023-04-16T19:05:20.619Z,87.21
2023-04-16T19:15:29.228Z,87.50
2023-04-16T19:25:37.757Z,88.05
2023-04-16T19:35:46.094Z,87.83
2023-04-16T19:45:53.643Z,88.46
2023-04-16T19:55:59.549Z,88.98
2023-04-16T20:06:06.830Z,89.67
2023-04-16T20:16:13.658Z,90.07
2023-04-16T20:26:19.853Z,91.01
2023-04-16T20:36:25.931Z,91.21
2023-04-16T20:46:34.369Z,91.29
2023-04-16T20:56:41.161Z,91.76
2023-04-16T21:06:47.459Z,92.61
2023-04-16T21:16:53.252Z,93.09
2023-04-16T21:26:59.012Z,94.04
2023-04-16T21:37:04.868Z,94.21
2023-04-16T21:47:10.681Z,94.67
2023-04-16T21:57:16.452Z,94.89
2023-04-16T22:07:22.077Z,95.43
2023-04-16T22:17:29.251Z,95.79
2023-04-16T22:27:36.318Z,95.79
2023-04-16T22:37:41.990Z,96.22
2023-04-16T22:47:47.658Z,96.32
2023-04-16T22:57:53.616Z,97.21
2023-04-16T23:07:59.289Z,98.04
2023-04-16T23:18:05.182Z,98.44
2023-04-16T23:28:11.037Z,99.10
2023-04-16T23:38:16.736Z,99.09
2023-04-16T23:48:22.455Z,99.35
2023-04-16T23:58:28.346Z,99.44
